PWSweather.com
Personal Weather Stations
Station Observations

ChardChardGB

Lat: 50.877408, Lon: -2.94964741

Elevation: 341

Station Type: WS3083

http://www.merriott-astro.co.uk/weather/index.htm

High Low Average
Temperature 51.3°F10.7°C 36.9°F2.7°C 43.7°F6.5°C
Dew Point 33.6°F0.9°C 24.2°F-4.3°C 28.1°F-2.2°C
Winds 10.3 mph 16.6 kmh 1.8 mph 2.9 kmh 5.0 mph E8.0 kmh E
Wind Gusts 12.1 mph19.5 kmh 2.2 mph3.5 kmh 8.0 mph12.9 kmh
Humidity 67% 37% 55%
Pressure 29.70 in1005.8 mb 29.62 in1003.0 mb -
Precipitation 0.00 in0.0 mm - -
Hour Temp Dew Point Humidity Winds Wind Gusts Pressure Precip Precip Rate Daily Precip Total
12:00 AM 41.2°F5.1°C 30.3°F-0.9°C 65% 4.8 mph ENE7.7 kmh ENE 7.6 mph12.2 kmh 29.70 in1005.8 mb 0.00 in0.0 mm 0.00 in0.0 mm 0.00 in0.0 mm
12:10 AM 41.2°F5.1°C 30.3°F-0.9°C 65% 4.3 mph ENE6.9 kmh ENE 6.9 mph11.1 kmh 29.70 in1005.8 mb 0.00 in0.0 mm 0.00 in0.0 mm 0.00 in0.0 mm
12:20 AM 41.0°F5.0°C 30.2°F-1.0°C 65% 4.1 mph ESE6.6 kmh ESE 7.6 mph12.2 kmh 29.70 in1005.8 mb 0.00 in0.0 mm 0.00 in0.0 mm 0.00 in0.0 mm
12:30 AM 40.6°F4.8°C 29.8°F-1.2°C 65% 3.2 mph SE5.1 kmh SE 5.4 mph8.7 kmh 29.70 in1005.8 mb 0.00 in0.0 mm 0.00 in0.0 mm 0.00 in0.0 mm
12:40 AM 40.5°F4.7°C 29.6°F-1.3°C 65% 3.5 mph E5.6 kmh E 5.4 mph8.7 kmh 29.70 in1005.8 mb 0.00 in0.0 mm 0.00 in0.0 mm 0.00 in0.0 mm
12:50 AM 40.3°F4.6°C 29.1°F-1.6°C 64% 3.6 mph SE5.8 kmh SE 4.5 mph7.2 kmh 29.70 in1005.8 mb 0.00 in0.0 mm 0.00 in0.0 mm 0.00 in0.0 mm
01:00 AM 40.1°F4.5°C 28.5°F-1.9°C 63% 2.6 mph E4.2 kmh E 3.8 mph6.1 kmh 29.69 in1005.4 mb 0.00 in0.0 mm 0.00 in0.0 mm 0.00 in0.0 mm
01:10 AM 39.9°F4.4°C 28.0°F-2.2°C 62% 3.2 mph E5.1 kmh E 4.5 mph7.2 kmh 29.68 in1005.1 mb 0.00 in0.0 mm 0.00 in0.0 mm 0.00 in0.0 mm
01:20 AM 39.7°F4.3°C 27.4°F-2.6°C 61% 3.3 mph SE5.3 kmh SE 4.5 mph7.2 kmh 29.68 in1005.1 mb 0.00 in0.0 mm 0.00 in0.0 mm 0.00 in0.0 mm
01:30 AM 39.6°F4.2°C 27.2°F-2.7°C 61% 2.9 mph E4.7 kmh E 4.5 mph7.2 kmh 29.68 in1005.1 mb 0.00 in0.0 mm 0.00 in0.0 mm 0.00 in0.0 mm
01:40 AM 39.6°F4.2°C 27.2°F-2.7°C 61% 3.6 mph E5.8 kmh E 7.6 mph12.2 kmh 29.69 in1005.4 mb 0.00 in0.0 mm 0.00 in0.0 mm 0.00 in0.0 mm
01:50 AM 39.4°F4.1°C 27.1°F-2.7°C 61% 3.0 mph ENE4.8 kmh ENE 4.5 mph7.2 kmh 29.69 in1005.4 mb 0.00 in0.0 mm 0.00 in0.0 mm 0.00 in0.0 mm
02:00 AM 39.4°F4.1°C 27.5°F-2.5°C 62% 4.1 mph ESE6.6 kmh ESE 6.0 mph9.7 kmh 29.68 in1005.1 mb 0.00 in0.0 mm 0.00 in0.0 mm 0.00 in0.0 mm
02:10 AM 39.4°F4.1°C 27.5°F-2.5°C 62% 3.4 mph E5.5 kmh E 4.5 mph7.2 kmh 29.68 in1005.1 mb 0.00 in0.0 mm 0.00 in0.0 mm 0.00 in0.0 mm
02:20 AM 39.6°F4.2°C 27.2°F-2.7°C 61% 3.6 mph SE5.8 kmh SE 4.5 mph7.2 kmh 29.68 in1005.1 mb 0.00 in0.0 mm 0.00 in0.0 mm 0.00 in0.0 mm
02:30 AM 39.4°F4.1°C 27.1°F-2.7°C 61% 2.6 mph SE4.2 kmh SE 5.4 mph8.7 kmh 29.69 in1005.4 mb 0.00 in0.0 mm 0.00 in0.0 mm 0.00 in0.0 mm
02:40 AM 39.2°F4.0°C 26.9°F-2.8°C 61% 2.4 mph E3.9 kmh E 3.1 mph5.0 kmh 29.69 in1005.4 mb 0.00 in0.0 mm 0.00 in0.0 mm 0.00 in0.0 mm
02:50 AM 38.8°F3.8°C 27.0°F-2.8°C 62% 2.7 mph ESE4.3 kmh ESE 5.4 mph8.7 kmh 29.69 in1005.4 mb 0.00 in0.0 mm 0.00 in0.0 mm 0.00 in0.0 mm
03:00 AM 38.7°F3.7°C 26.8°F-2.9°C 62% 2.2 mph ENE3.5 kmh ENE 3.8 mph6.1 kmh 29.69 in1005.4 mb 0.00 in0.0 mm 0.00 in0.0 mm 0.00 in0.0 mm
03:10 AM 38.7°F3.7°C 27.2°F-2.7°C 63% 2.8 mph E4.5 kmh E 4.5 mph7.2 kmh 29.68 in1005.1 mb 0.00 in0.0 mm 0.00 in0.0 mm 0.00 in0.0 mm
03:20 AM 38.3°F3.5°C 26.8°F-2.9°C 63% 2.1 mph E3.4 kmh E 3.1 mph5.0 kmh 29.68 in1005.1 mb 0.00 in0.0 mm 0.00 in0.0 mm 0.00 in0.0 mm
03:30 AM 37.9°F3.3°C 26.5°F-3.1°C 63% 2.0 mph E3.2 kmh E 3.8 mph6.1 kmh 29.68 in1005.1 mb 0.00 in0.0 mm 0.00 in0.0 mm 0.00 in0.0 mm
03:40 AM 37.9°F3.3°C 26.9°F-2.8°C 64% 2.7 mph E4.3 kmh E 3.8 mph6.1 kmh 29.68 in1005.1 mb 0.00 in0.0 mm 0.00 in0.0 mm 0.00 in0.0 mm
03:50 AM 37.6°F3.1°C 26.5°F-3.1°C 64% 1.8 mph E2.9 kmh E 2.2 mph3.5 kmh 29.68 in1005.1 mb 0.00 in0.0 mm 0.00 in0.0 mm 0.00 in0.0 mm
04:00 AM 37.2°F2.9°C 26.2°F-3.2°C 64% 2.4 mph N3.9 kmh N 3.8 mph6.1 kmh 29.68 in1005.1 mb 0.00 in0.0 mm 0.00 in0.0 mm 0.00 in0.0 mm
04:10 AM 37.0°F2.8°C 26.0°F-3.3°C 64% 3.4 mph ENE5.5 kmh ENE 4.5 mph7.2 kmh 29.68 in1005.1 mb 0.00 in0.0 mm 0.00 in0.0 mm 0.00 in0.0 mm
04:20 AM 36.9°F2.7°C 25.8°F-3.4°C 64% 2.8 mph E4.5 kmh E 4.5 mph7.2 kmh 29.68 in1005.1 mb 0.00 in0.0 mm 0.00 in0.0 mm 0.00 in0.0 mm
04:30 AM 36.9°F2.7°C 25.8°F-3.4°C 64% 3.3 mph NE5.3 kmh NE 5.4 mph8.7 kmh 29.68 in1005.1 mb 0.00 in0.0 mm 0.00 in0.0 mm 0.00 in0.0 mm
04:40 AM 37.0°F2.8°C 26.0°F-3.3°C 64% 4.1 mph ENE6.6 kmh ENE 9.2 mph14.8 kmh 29.68 in1005.1 mb 0.00 in0.0 mm 0.00 in0.0 mm 0.00 in0.0 mm
04:50 AM 37.0°F2.8°C 26.0°F-3.3°C 64% 2.9 mph NE4.7 kmh NE 4.5 mph7.2 kmh 29.68 in1005.1 mb 0.00 in0.0 mm 0.00 in0.0 mm 0.00 in0.0 mm
05:00 AM 37.0°F2.8°C 26.0°F-3.3°C 64% 3.3 mph NE5.3 kmh NE 5.4 mph8.7 kmh 29.68 in1005.1 mb 0.00 in0.0 mm 0.00 in0.0 mm 0.00 in0.0 mm
05:10 AM 37.0°F2.8°C 26.0°F-3.3°C 64% 3.4 mph NE5.5 kmh NE 6.0 mph9.7 kmh 29.69 in1005.4 mb 0.00 in0.0 mm 0.00 in0.0 mm 0.00 in0.0 mm
05:20 AM 37.0°F2.8°C 26.0°F-3.3°C 64% 2.8 mph E4.5 kmh E 3.8 mph6.1 kmh 29.68 in1005.1 mb 0.00 in0.0 mm 0.00 in0.0 mm 0.00 in0.0 mm
05:30 AM 37.2°F2.9°C 26.6°F-3.0°C 65% 3.1 mph E5.0 kmh E 5.4 mph8.7 kmh 29.68 in1005.1 mb 0.00 in0.0 mm 0.00 in0.0 mm 0.00 in0.0 mm
05:40 AM 37.4°F3.0°C 26.7°F-2.9°C 65% 4.7 mph E7.6 kmh E 5.4 mph8.7 kmh 29.68 in1005.1 mb 0.00 in0.0 mm 0.00 in0.0 mm 0.00 in0.0 mm
05:50 AM 37.6°F3.1°C 26.9°F-2.8°C 65% 3.0 mph NNE4.8 kmh NNE 8.3 mph13.4 kmh 29.68 in1005.1 mb 0.00 in0.0 mm 0.00 in0.0 mm 0.00 in0.0 mm
06:00 AM 37.8°F3.2°C 26.7°F-2.9°C 64% 3.7 mph E6.0 kmh E 5.4 mph8.7 kmh 29.69 in1005.4 mb 0.00 in0.0 mm 0.00 in0.0 mm 0.00 in0.0 mm
06:10 AM 37.9°F3.3°C 26.9°F-2.8°C 64% 3.2 mph E5.1 kmh E 5.4 mph8.7 kmh 29.68 in1005.1 mb 0.00 in0.0 mm 0.00 in0.0 mm 0.00 in0.0 mm
06:20 AM 37.9°F3.3°C 26.9°F-2.8°C 64% 5.3 mph ESE8.5 kmh ESE 7.6 mph12.2 kmh 29.68 in1005.1 mb 0.00 in0.0 mm 0.00 in0.0 mm 0.00 in0.0 mm
06:30 AM 38.3°F3.5°C 27.2°F-2.7°C 64% 6.0 mph E9.7 kmh E 8.3 mph13.4 kmh 29.68 in1005.1 mb 0.00 in0.0 mm 0.00 in0.0 mm 0.00 in0.0 mm
06:40 AM 38.5°F3.6°C 27.0°F-2.8°C 63% 5.2 mph NE8.4 kmh NE 8.3 mph13.4 kmh 29.68 in1005.1 mb 0.00 in0.0 mm 0.00 in0.0 mm 0.00 in0.0 mm
06:50 AM 38.7°F3.7°C 27.2°F-2.7°C 63% 5.6 mph E9.0 kmh E 8.3 mph13.4 kmh 29.68 in1005.1 mb 0.00 in0.0 mm 0.00 in0.0 mm 0.00 in0.0 mm
07:00 AM 39.0°F3.9°C 27.5°F-2.5°C 63% 5.6 mph E9.0 kmh E 7.6 mph12.2 kmh 29.68 in1005.1 mb 0.00 in0.0 mm 0.00 in0.0 mm 0.00 in0.0 mm
07:10 AM 39.2°F4.0°C 27.7°F-2.4°C 63% 5.5 mph SE8.9 kmh SE 7.6 mph12.2 kmh 29.68 in1005.1 mb 0.00 in0.0 mm 0.00 in0.0 mm 0.00 in0.0 mm
07:20 AM 39.6°F4.2°C 28.0°F-2.2°C 63% 5.5 mph ESE8.9 kmh ESE 8.3 mph13.4 kmh 29.68 in1005.1 mb 0.00 in0.0 mm 0.00 in0.0 mm 0.00 in0.0 mm
07:30 AM 39.7°F4.3°C 27.8°F-2.3°C 62% 6.5 mph E10.5 kmh E 9.8 mph15.8 kmh 29.68 in1005.1 mb 0.00 in0.0 mm 0.00 in0.0 mm 0.00 in0.0 mm
07:40 AM 40.1°F4.5°C 28.1°F-2.2°C 62% 5.9 mph E9.5 kmh E 7.6 mph12.2 kmh 29.68 in1005.1 mb 0.00 in0.0 mm 0.00 in0.0 mm 0.00 in0.0 mm
07:50 AM 40.8°F4.9°C 28.8°F-1.8°C 62% 4.6 mph E7.4 kmh E 9.8 mph15.8 kmh 29.68 in1005.1 mb 0.00 in0.0 mm 0.00 in0.0 mm 0.00 in0.0 mm
08:00 AM 41.2°F5.1°C 29.2°F-1.6°C 62% 4.3 mph E6.9 kmh E 9.8 mph15.8 kmh 29.68 in1005.1 mb 0.00 in0.0 mm 0.00 in0.0 mm 0.00 in0.0 mm
08:10 AM 41.4°F5.2°C 28.9°F-1.7°C 61% 4.1 mph ESE6.6 kmh ESE 5.4 mph8.7 kmh 29.68 in1005.1 mb 0.00 in0.0 mm 0.00 in0.0 mm 0.00 in0.0 mm
08:20 AM 41.7°F5.4°C 29.3°F-1.5°C 61% 4.7 mph ESE7.6 kmh ESE 6.9 mph11.1 kmh 29.68 in1005.1 mb 0.00 in0.0 mm 0.00 in0.0 mm 0.00 in0.0 mm
08:30 AM 42.1°F5.6°C 29.6°F-1.3°C 61% 4.3 mph E6.9 kmh E 5.4 mph8.7 kmh 29.69 in1005.4 mb 0.00 in0.0 mm 0.00 in0.0 mm 0.00 in0.0 mm
08:40 AM 42.4°F5.8°C 30.0°F-1.1°C 61% 3.8 mph E6.1 kmh E 5.4 mph8.7 kmh 29.68 in1005.1 mb 0.00 in0.0 mm 0.00 in0.0 mm 0.00 in0.0 mm
08:50 AM 43.0°F6.1°C 30.1°F-1.1°C 60% 4.2 mph E6.8 kmh E 6.9 mph11.1 kmh 29.68 in1005.1 mb 0.00 in0.0 mm 0.00 in0.0 mm 0.00 in0.0 mm
09:00 AM 43.9°F6.6°C 30.9°F-0.6°C 60% 2.8 mph NE4.5 kmh NE 5.4 mph8.7 kmh 29.68 in1005.1 mb 0.00 in0.0 mm 0.00 in0.0 mm 0.00 in0.0 mm
09:10 AM 44.1°F6.7°C 30.2°F-1.0°C 58% 4.9 mph ESE7.9 kmh ESE 7.6 mph12.2 kmh 29.68 in1005.1 mb 0.00 in0.0 mm 0.00 in0.0 mm 0.00 in0.0 mm
09:20 AM 44.8°F7.1°C 30.5°F-0.8°C 57% 4.3 mph E6.9 kmh E 6.9 mph11.1 kmh 29.68 in1005.1 mb 0.00 in0.0 mm 0.00 in0.0 mm 0.00 in0.0 mm
09:30 AM 45.3°F7.4°C 28.7°F-1.8°C 52% 7.4 mph E11.9 kmh E 12.1 mph19.5 kmh 29.68 in1005.1 mb 0.00 in0.0 mm 0.00 in0.0 mm 0.00 in0.0 mm
09:40 AM 46.6°F8.1°C 26.9°F-2.8°C 46% 7.5 mph ESE12.1 kmh ESE 12.1 mph19.5 kmh 29.68 in1005.1 mb 0.00 in0.0 mm 0.00 in0.0 mm 0.00 in0.0 mm
09:50 AM 47.8°F8.8°C 26.4°F-3.1°C 43% 6.9 mph S11.1 kmh S 10.7 mph17.2 kmh 29.66 in1004.4 mb 0.00 in0.0 mm 0.00 in0.0 mm 0.00 in0.0 mm
10:00 AM 48.4°F9.1°C 27.5°F-2.5°C 44% 4.5 mph E7.2 kmh E 7.6 mph12.2 kmh 29.66 in1004.4 mb 0.00 in0.0 mm 0.00 in0.0 mm 0.00 in0.0 mm
10:10 AM 48.2°F9.0°C 27.3°F-2.6°C 44% 6.7 mph E10.8 kmh E 8.3 mph13.4 kmh 29.66 in1004.4 mb 0.00 in0.0 mm 0.00 in0.0 mm 0.00 in0.0 mm
10:20 AM 48.6°F9.2°C 26.5°F-3.1°C 42% 6.8 mph ESE10.9 kmh ESE 9.8 mph15.8 kmh 29.66 in1004.4 mb 0.00 in0.0 mm 0.00 in0.0 mm 0.00 in0.0 mm
10:30 AM 49.1°F9.5°C 26.4°F-3.1°C 41% 8.8 mph ESE14.2 kmh ESE 10.7 mph17.2 kmh 29.66 in1004.4 mb 0.00 in0.0 mm 0.00 in0.0 mm 0.00 in0.0 mm
10:40 AM 50.2°F10.1°C 27.4°F-2.6°C 41% 7.5 mph SE12.1 kmh SE 9.8 mph15.8 kmh 29.66 in1004.4 mb 0.00 in0.0 mm 0.00 in0.0 mm 0.00 in0.0 mm
10:50 AM 51.3°F10.7°C 27.8°F-2.3°C 40% 7.3 mph NE11.7 kmh NE 10.7 mph17.2 kmh 29.65 in1004.1 mb 0.00 in0.0 mm 0.00 in0.0 mm 0.00 in0.0 mm
11:00 AM 49.5°F9.7°C 26.2°F-3.2°C 40% 10.3 mph ESE16.6 kmh ESE 12.1 mph19.5 kmh 29.64 in1003.7 mb 0.00 in0.0 mm 0.00 in0.0 mm 0.00 in0.0 mm
11:10 AM 50.2°F10.1°C 27.4°F-2.6°C 41% 8.0 mph ESE12.9 kmh ESE 11.4 mph18.3 kmh 29.63 in1003.4 mb 0.00 in0.0 mm 0.00 in0.0 mm 0.00 in0.0 mm
11:20 AM 50.4°F10.2°C 26.4°F-3.1°C 39% 8.6 mph ESE13.8 kmh ESE 11.4 mph18.3 kmh 29.65 in1004.1 mb 0.00 in0.0 mm 0.00 in0.0 mm 0.00 in0.0 mm
11:30 AM 50.5°F10.3°C 27.1°F-2.7°C 40% 6.9 mph E11.1 kmh E 8.3 mph13.4 kmh 29.65 in1004.1 mb 0.00 in0.0 mm 0.00 in0.0 mm 0.00 in0.0 mm
11:40 AM 49.5°F9.7°C 26.8°F-2.9°C 41% 7.9 mph E12.7 kmh E 11.4 mph18.3 kmh 29.67 in1004.7 mb 0.00 in0.0 mm 0.00 in0.0 mm 0.00 in0.0 mm
11:50 AM 48.4°F9.1°C 26.4°F-3.1°C 42% 6.9 mph SE11.1 kmh SE 10.7 mph17.2 kmh 29.66 in1004.4 mb 0.00 in0.0 mm 0.00 in0.0 mm 0.00 in0.0 mm
12:00 PM 47.1°F8.4°C 26.3°F-3.2°C 44% 7.7 mph E12.4 kmh E 10.7 mph17.2 kmh 29.67 in1004.7 mb 0.00 in0.0 mm 0.00 in0.0 mm 0.00 in0.0 mm
12:10 PM 47.3°F8.5°C 27.6°F-2.4°C 46% 5.4 mph E8.7 kmh E 6.9 mph11.1 kmh 29.67 in1004.7 mb 0.00 in0.0 mm 0.00 in0.0 mm 0.00 in0.0 mm
12:20 PM 47.5°F8.6°C 27.7°F-2.4°C 46% 5.6 mph SSE9.0 kmh SSE 9.2 mph14.8 kmh 29.66 in1004.4 mb 0.00 in0.0 mm 0.00 in0.0 mm 0.00 in0.0 mm
12:30 PM 47.8°F8.8°C 29.1°F-1.6°C 48% 5.4 mph SE8.7 kmh SE 12.1 mph19.5 kmh 29.66 in1004.4 mb 0.00 in0.0 mm 0.00 in0.0 mm 0.00 in0.0 mm
12:40 PM 47.5°F8.6°C 29.8°F-1.2°C 50% 5.7 mph SW9.2 kmh SW 9.8 mph15.8 kmh 29.67 in1004.7 mb 0.00 in0.0 mm 0.00 in0.0 mm 0.00 in0.0 mm
12:50 PM 48.9°F9.4°C 31.1°F-0.5°C 50% 4.8 mph S7.7 kmh S 6.9 mph11.1 kmh 29.67 in1004.7 mb 0.00 in0.0 mm 0.00 in0.0 mm 0.00 in0.0 mm
01:00 PM 49.3°F9.6°C 30.9°F-0.6°C 49% 5.3 mph SE8.5 kmh SE 7.6 mph12.2 kmh 29.69 in1005.4 mb 0.00 in0.0 mm 0.00 in0.0 mm 0.00 in0.0 mm
01:10 PM 48.6°F9.2°C 30.8°F-0.7°C 50% 6.6 mph SE10.6 kmh SE 9.8 mph15.8 kmh 29.69 in1005.4 mb 0.00 in0.0 mm 0.00 in0.0 mm 0.00 in0.0 mm
01:20 PM 48.2°F9.0°C 30.4°F-0.9°C 50% 6.7 mph SSE10.8 kmh SSE 8.3 mph13.4 kmh 29.70 in1005.8 mb 0.00 in0.0 mm 0.00 in0.0 mm 0.00 in0.0 mm
01:30 PM 48.0°F8.9°C 30.3°F-0.9°C 50% 6.2 mph SE10.0 kmh SE 11.4 mph18.3 kmh 29.69 in1005.4 mb 0.00 in0.0 mm 0.00 in0.0 mm 0.00 in0.0 mm
01:40 PM 47.8°F8.8°C 30.1°F-1.1°C 50% 8.0 mph SSE12.9 kmh SSE 10.7 mph17.2 kmh 29.68 in1005.1 mb 0.00 in0.0 mm 0.00 in0.0 mm 0.00 in0.0 mm
01:50 PM 49.1°F9.5°C 30.8°F-0.7°C 49% 5.6 mph NNW9.0 kmh NNW 7.6 mph12.2 kmh 29.67 in1004.7 mb 0.00 in0.0 mm 0.00 in0.0 mm 0.00 in0.0 mm
02:00 PM 48.4°F9.1°C 30.6°F-0.8°C 50% 5.8 mph E9.3 kmh E 8.3 mph13.4 kmh 29.67 in1004.7 mb 0.00 in0.0 mm 0.00 in0.0 mm 0.00 in0.0 mm
02:10 PM 48.9°F9.4°C 30.1°F-1.1°C 48% 7.0 mph SE11.3 kmh SE 9.8 mph15.8 kmh 29.66 in1004.4 mb 0.00 in0.0 mm 0.00 in0.0 mm 0.00 in0.0 mm
02:20 PM 49.8°F9.9°C 30.9°F-0.6°C 48% 5.8 mph ESE9.3 kmh ESE 8.3 mph13.4 kmh 29.66 in1004.4 mb 0.00 in0.0 mm 0.00 in0.0 mm 0.00 in0.0 mm
02:30 PM 51.3°F10.7°C 30.7°F-0.7°C 45% 6.3 mph SE10.1 kmh SE 9.8 mph15.8 kmh 29.66 in1004.4 mb 0.00 in0.0 mm 0.00 in0.0 mm 0.00 in0.0 mm
02:40 PM 49.3°F9.6°C 27.2°F-2.7°C 42% 8.2 mph NE13.2 kmh NE 9.8 mph15.8 kmh 29.67 in1004.7 mb 0.00 in0.0 mm 0.00 in0.0 mm 0.00 in0.0 mm
02:50 PM 49.3°F9.6°C 26.6°F-3.0°C 41% 7.2 mph E11.6 kmh E 10.7 mph17.2 kmh 29.66 in1004.4 mb 0.00 in0.0 mm 0.00 in0.0 mm 0.00 in0.0 mm
03:00 PM 49.5°F9.7°C 26.2°F-3.2°C 40% 5.8 mph SSE9.3 kmh SSE 10.7 mph17.2 kmh 29.65 in1004.1 mb 0.00 in0.0 mm 0.00 in0.0 mm 0.00 in0.0 mm
03:10 PM 49.8°F9.9°C 27.7°F-2.4°C 42% 6.8 mph SE10.9 kmh SE 10.7 mph17.2 kmh 29.65 in1004.1 mb 0.00 in0.0 mm 0.00 in0.0 mm 0.00 in0.0 mm
03:20 PM 50.7°F10.4°C 27.3°F-2.6°C 40% 4.2 mph ESE6.8 kmh ESE 6.9 mph11.1 kmh 29.66 in1004.4 mb 0.00 in0.0 mm 0.00 in0.0 mm 0.00 in0.0 mm
03:30 PM 50.7°F10.4°C 27.3°F-2.6°C 40% 6.1 mph E9.8 kmh E 9.2 mph14.8 kmh 29.65 in1004.1 mb 0.00 in0.0 mm 0.00 in0.0 mm 0.00 in0.0 mm
03:40 PM 50.7°F10.4°C 27.3°F-2.6°C 40% 5.5 mph SE8.9 kmh SE 9.2 mph14.8 kmh 29.66 in1004.4 mb 0.00 in0.0 mm 0.00 in0.0 mm 0.00 in0.0 mm
03:50 PM 49.8°F9.9°C 24.6°F-4.1°C 37% 7.0 mph E11.3 kmh E 8.3 mph13.4 kmh 29.66 in1004.4 mb 0.00 in0.0 mm 0.00 in0.0 mm 0.00 in0.0 mm
04:00 PM 50.0°F10.0°C 25.4°F-3.7°C 38% 6.1 mph E9.8 kmh E 7.6 mph12.2 kmh 29.66 in1004.4 mb 0.00 in0.0 mm 0.00 in0.0 mm 0.00 in0.0 mm
04:10 PM 48.9°F9.4°C 25.1°F-3.8°C 39% 8.9 mph E14.3 kmh E 11.4 mph18.3 kmh 29.65 in1004.1 mb 0.00 in0.0 mm 0.00 in0.0 mm 0.00 in0.0 mm
04:20 PM 48.9°F9.4°C 25.7°F-3.5°C 40% 7.3 mph E11.7 kmh E 10.7 mph17.2 kmh 29.64 in1003.7 mb 0.00 in0.0 mm 0.00 in0.0 mm 0.00 in0.0 mm
04:30 PM 49.6°F9.8°C 24.4°F-4.2°C 37% 6.8 mph ESE10.9 kmh ESE 10.7 mph17.2 kmh 29.65 in1004.1 mb 0.00 in0.0 mm 0.00 in0.0 mm 0.00 in0.0 mm
04:40 PM 48.6°F9.2°C 25.4°F-3.7°C 40% 6.1 mph E9.8 kmh E 8.3 mph13.4 kmh 29.65 in1004.1 mb 0.00 in0.0 mm 0.00 in0.0 mm 0.00 in0.0 mm
04:50 PM 47.3°F8.5°C 24.8°F-4.0°C 41% 7.6 mph ESE12.2 kmh ESE 11.4 mph18.3 kmh 29.64 in1003.7 mb 0.00 in0.0 mm 0.00 in0.0 mm 0.00 in0.0 mm
05:00 PM 47.3°F8.5°C 24.8°F-4.0°C 41% 5.9 mph E9.5 kmh E 9.2 mph14.8 kmh 29.64 in1003.7 mb 0.00 in0.0 mm 0.00 in0.0 mm 0.00 in0.0 mm
05:10 PM 47.5°F8.6°C 25.5°F-3.6°C 42% 5.8 mph SE9.3 kmh SE 8.3 mph13.4 kmh 29.65 in1004.1 mb 0.00 in0.0 mm 0.00 in0.0 mm 0.00 in0.0 mm
05:20 PM 47.1°F8.4°C 24.6°F-4.1°C 41% 6.1 mph E9.8 kmh E 8.3 mph13.4 kmh 29.65 in1004.1 mb 0.00 in0.0 mm 0.00 in0.0 mm 0.00 in0.0 mm
05:30 PM 46.6°F8.1°C 24.7°F-4.1°C 42% 6.0 mph SE9.7 kmh SE 8.3 mph13.4 kmh 29.64 in1003.7 mb 0.00 in0.0 mm 0.00 in0.0 mm 0.00 in0.0 mm
05:40 PM 46.4°F8.0°C 25.1°F-3.8°C 43% 6.0 mph E9.7 kmh E 10.7 mph17.2 kmh 29.64 in1003.7 mb 0.00 in0.0 mm 0.00 in0.0 mm 0.00 in0.0 mm
05:50 PM 46.0°F7.8°C 24.2°F-4.3°C 42% 6.3 mph ESE10.1 kmh ESE 9.8 mph15.8 kmh 29.64 in1003.7 mb 0.00 in0.0 mm 0.00 in0.0 mm 0.00 in0.0 mm
06:00 PM 46.0°F7.8°C 24.2°F-4.3°C 42% 5.4 mph ENE8.7 kmh ENE 7.6 mph12.2 kmh 29.64 in1003.7 mb 0.00 in0.0 mm 0.00 in0.0 mm 0.00 in0.0 mm
06:10 PM 46.8°F8.2°C 25.5°F-3.6°C 43% 4.1 mph E6.6 kmh E 5.4 mph8.7 kmh 29.63 in1003.4 mb 0.00 in0.0 mm 0.00 in0.0 mm 0.00 in0.0 mm
06:20 PM 46.6°F8.1°C 24.7°F-4.1°C 42% 6.4 mph ESE10.3 kmh ESE 11.4 mph18.3 kmh 29.64 in1003.7 mb 0.00 in0.0 mm 0.00 in0.0 mm 0.00 in0.0 mm
06:30 PM 45.7°F7.6°C 24.5°F-4.2°C 43% 4.3 mph ENE6.9 kmh ENE 7.6 mph12.2 kmh 29.63 in1003.4 mb 0.00 in0.0 mm 0.00 in0.0 mm 0.00 in0.0 mm
06:40 PM 44.8°F7.1°C 27.8°F-2.3°C 51% 3.3 mph E5.3 kmh E 5.4 mph8.7 kmh 29.63 in1003.4 mb 0.00 in0.0 mm 0.00 in0.0 mm 0.00 in0.0 mm
06:50 PM 43.9°F6.6°C 26.9°F-2.8°C 51% 3.3 mph ENE5.3 kmh ENE 4.5 mph7.2 kmh 29.63 in1003.4 mb 0.00 in0.0 mm 0.00 in0.0 mm 0.00 in0.0 mm
07:00 PM 43.5°F6.4°C 27.1°F-2.7°C 52% 3.9 mph ESE6.3 kmh ESE 6.0 mph9.7 kmh 29.64 in1003.7 mb 0.00 in0.0 mm 0.00 in0.0 mm 0.00 in0.0 mm
07:10 PM 43.3°F6.3°C 27.4°F-2.6°C 53% 4.6 mph SSE7.4 kmh SSE 6.9 mph11.1 kmh 29.63 in1003.4 mb 0.00 in0.0 mm 0.00 in0.0 mm 0.00 in0.0 mm
07:20 PM 43.3°F6.3°C 27.8°F-2.3°C 54% 4.2 mph ENE6.8 kmh ENE 6.0 mph9.7 kmh 29.64 in1003.7 mb 0.00 in0.0 mm 0.00 in0.0 mm 0.00 in0.0 mm
07:30 PM 43.2°F6.2°C 28.1°F-2.2°C 55% 3.3 mph ESE5.3 kmh ESE 4.5 mph7.2 kmh 29.64 in1003.7 mb 0.00 in0.0 mm 0.00 in0.0 mm 0.00 in0.0 mm
07:40 PM 43.0°F6.1°C 27.9°F-2.3°C 55% 4.0 mph SE6.4 kmh SE 6.0 mph9.7 kmh 29.64 in1003.7 mb 0.00 in0.0 mm 0.00 in0.0 mm 0.00 in0.0 mm
07:50 PM 42.8°F6.0°C 27.8°F-2.3°C 55% 3.6 mph E5.8 kmh E 9.2 mph14.8 kmh 29.65 in1004.1 mb 0.00 in0.0 mm 0.00 in0.0 mm 0.00 in0.0 mm
08:00 PM 42.4°F5.8°C 27.9°F-2.3°C 56% 3.2 mph ESE5.1 kmh ESE 6.0 mph9.7 kmh 29.65 in1004.1 mb 0.00 in0.0 mm 0.00 in0.0 mm 0.00 in0.0 mm
08:10 PM 42.3°F5.7°C 28.1°F-2.2°C 57% 3.1 mph E5.0 kmh E 4.5 mph7.2 kmh 29.65 in1004.1 mb 0.00 in0.0 mm 0.00 in0.0 mm 0.00 in0.0 mm
08:20 PM 41.9°F5.5°C 28.2°F-2.1°C 58% 2.3 mph NNE3.7 kmh NNE 4.5 mph7.2 kmh 29.65 in1004.1 mb 0.00 in0.0 mm 0.00 in0.0 mm 0.00 in0.0 mm
08:30 PM 41.9°F5.5°C 28.6°F-1.9°C 59% 3.2 mph E5.1 kmh E 4.5 mph7.2 kmh 29.64 in1003.7 mb 0.00 in0.0 mm 0.00 in0.0 mm 0.00 in0.0 mm
08:40 PM 41.9°F5.5°C 29.0°F-1.7°C 60% 3.0 mph E4.8 kmh E 6.0 mph9.7 kmh 29.64 in1003.7 mb 0.00 in0.0 mm 0.00 in0.0 mm 0.00 in0.0 mm
08:50 PM 42.3°F5.7°C 29.8°F-1.2°C 61% 4.2 mph NE6.8 kmh NE 9.2 mph14.8 kmh 29.65 in1004.1 mb 0.00 in0.0 mm 0.00 in0.0 mm 0.00 in0.0 mm
09:00 PM 42.3°F5.7°C 29.8°F-1.2°C 61% 3.1 mph NE5.0 kmh NE 5.4 mph8.7 kmh 29.66 in1004.4 mb 0.00 in0.0 mm 0.00 in0.0 mm 0.00 in0.0 mm
09:10 PM 42.3°F5.7°C 30.6°F-0.8°C 63% 4.0 mph SE6.4 kmh SE 7.6 mph12.2 kmh 29.65 in1004.1 mb 0.00 in0.0 mm 0.00 in0.0 mm 0.00 in0.0 mm
09:20 PM 42.3°F5.7°C 30.6°F-0.8°C 63% 4.3 mph SE6.9 kmh SE 6.0 mph9.7 kmh 29.65 in1004.1 mb 0.00 in0.0 mm 0.00 in0.0 mm 0.00 in0.0 mm
09:30 PM 42.4°F5.8°C 31.1°F-0.5°C 64% 4.1 mph ESE6.6 kmh ESE 6.0 mph9.7 kmh 29.65 in1004.1 mb 0.00 in0.0 mm 0.00 in0.0 mm 0.00 in0.0 mm
09:40 PM 42.3°F5.7°C 31.3°F-0.4°C 65% 3.1 mph SE5.0 kmh SE 6.0 mph9.7 kmh 29.65 in1004.1 mb 0.00 in0.0 mm 0.00 in0.0 mm 0.00 in0.0 mm
09:50 PM 42.6°F5.9°C 31.7°F-0.2°C 65% 5.4 mph ENE8.7 kmh ENE 9.2 mph14.8 kmh 29.64 in1003.7 mb 0.00 in0.0 mm 0.00 in0.0 mm 0.00 in0.0 mm
10:00 PM 42.8°F6.0°C 31.9°F-0.1°C 65% 4.5 mph ESE7.2 kmh ESE 6.9 mph11.1 kmh 29.65 in1004.1 mb 0.00 in0.0 mm 0.00 in0.0 mm 0.00 in0.0 mm
10:10 PM 43.0°F6.1°C 32.4°F0.2°C 66% 4.1 mph E6.6 kmh E 6.9 mph11.1 kmh 29.65 in1004.1 mb 0.00 in0.0 mm 0.00 in0.0 mm 0.00 in0.0 mm
10:20 PM 43.2°F6.2°C 32.6°F0.3°C 66% 5.2 mph ESE8.4 kmh ESE 7.6 mph12.2 kmh 29.65 in1004.1 mb 0.00 in0.0 mm 0.00 in0.0 mm 0.00 in0.0 mm
10:30 PM 43.3°F6.3°C 32.8°F0.4°C 66% 3.7 mph E6.0 kmh E 6.0 mph9.7 kmh 29.65 in1004.1 mb 0.00 in0.0 mm 0.00 in0.0 mm 0.00 in0.0 mm
10:40 PM 43.5°F6.4°C 32.9°F0.5°C 66% 4.9 mph E7.9 kmh E 6.0 mph9.7 kmh 29.64 in1003.7 mb 0.00 in0.0 mm 0.00 in0.0 mm 0.00 in0.0 mm
10:50 PM 43.7°F6.5°C 33.5°F0.8°C 67% 6.0 mph SE9.7 kmh SE 8.3 mph13.4 kmh 29.64 in1003.7 mb 0.00 in0.0 mm 0.00 in0.0 mm 0.00 in0.0 mm
11:00 PM 43.9°F6.6°C 33.6°F0.9°C 67% 5.8 mph E9.3 kmh E 10.7 mph17.2 kmh 29.64 in1003.7 mb 0.00 in0.0 mm 0.00 in0.0 mm 0.00 in0.0 mm
11:10 PM 44.1°F6.7°C 33.4°F0.8°C 66% 4.4 mph ENE7.1 kmh ENE 8.3 mph13.4 kmh 29.64 in1003.7 mb 0.00 in0.0 mm 0.00 in0.0 mm 0.00 in0.0 mm
11:20 PM 44.1°F6.7°C 33.1°F0.6°C 65% 4.9 mph E7.9 kmh E 8.3 mph13.4 kmh 29.63 in1003.4 mb 0.00 in0.0 mm 0.00 in0.0 mm 0.00 in0.0 mm
11:30 PM 44.2°F6.8°C 32.5°F0.3°C 63% 5.4 mph ESE8.7 kmh ESE 8.3 mph13.4 kmh 29.63 in1003.4 mb 0.00 in0.0 mm 0.00 in0.0 mm 0.00 in0.0 mm
11:40 PM 44.4°F6.9°C 32.2°F0.1°C 62% 4.8 mph SE7.7 kmh SE 9.2 mph14.8 kmh 29.63 in1003.4 mb 0.00 in0.0 mm 0.00 in0.0 mm 0.00 in0.0 mm
11:50 PM 44.6°F7.0°C 32.0°F0.0°C 61% 6.5 mph NE10.5 kmh NE 9.2 mph14.8 kmh 29.62 in1003.0 mb 0.00 in0.0 mm 0.00 in0.0 mm 0.00 in0.0 mm